Time;durP1;ratioP1;P1;durP2;ratioP2;P2;SDS_P1;SDS_P2;PMS_P1;PMS_P2;Temp;Humidity;BMP_temperature;BMP_pressure;BME280_temperature;BME280_humidity;BME280_pressure;Samples;Min_cycle;Max_cycle;Signal;HPM_P1;HPM_P2
2023/07/02 00:01:30;;;;;;;6.00;5.43;;;15.90;99.90;;;;;;4936507;28;95577;-39
2023/07/02 00:03:56;;;;;;;9.43;5.50;;;15.90;99.90;;;;;;4938276;28;92187;-37
2023/07/02 00:06:21;;;;;;;7.85;5.97;;;15.90;99.90;;;;;;4937700;28;93701;-33
2023/07/02 00:08:47;;;;;;;9.25;5.65;;;15.90;99.90;;;;;;4938425;28;94322;-33
2023/07/02 00:11:15;;;;;;;10.15;6.70;;;15.90;99.90;;;;;;4937736;28;95248;-33
2023/07/02 00:13:41;;;;;;;;;;;15.80;99.90;;;;;;4938736;28;92196;-35
2023/07/02 00:16:06;;;;;;;7.10;6.28;;;15.70;99.90;;;;;;4938482;28;94473;-37
2023/07/02 00:18:33;;;;;;;9.10;6.85;;;15.70;99.90;;;;;;4936869;28;94078;-35
2023/07/02 00:21:02;;;;;;;11.15;6.95;;;15.70;99.90;;;;;;4936948;28;93962;-39
2023/07/02 00:23:29;;;;;;;8.50;6.97;;;15.70;99.90;;;;;;4936939;28;94994;-35
2023/07/02 00:25:55;;;;;;;9.40;6.63;;;15.60;99.90;;;;;;4939655;28;93006;-33
2023/07/02 00:28:20;;;;;;;6.90;6.22;;;15.60;99.90;;;;;;4937597;28;94836;-37
2023/07/02 00:30:46;;;;;;;8.98;6.93;;;15.60;99.90;;;;;;4938749;28;95138;-35
2023/07/02 00:33:12;;;;;;;8.77;7.05;;;15.60;99.90;;;;;;4936994;28;93376;-37
2023/07/02 00:35:37;;;;;;;7.72;6.95;;;15.60;99.90;;;;;;4939028;28;93086;-34
2023/07/02 00:38:03;;;;;;;11.38;7.57;;;15.60;99.90;;;;;;4938175;28;95578;-34
2023/07/02 00:40:29;;;;;;;9.65;7.55;;;15.60;99.90;;;;;;4938383;28;94613;-33
2023/07/02 00:42:56;;;;;;;9.68;7.78;;;15.60;99.90;;;;;;4938081;28;94488;-34
2023/07/02 00:45:22;;;;;;;11.75;6.70;;;15.60;99.90;;;;;;4937607;28;94685;-36
2023/07/02 00:47:48;;;;;;;9.45;7.65;;;15.60;99.90;;;;;;4937384;28;95224;-36
2023/07/02 00:50:14;;;;;;;10.48;7.50;;;15.60;99.90;;;;;;4938279;28;95784;-34
2023/07/02 00:52:40;;;;;;;9.27;6.07;;;15.50;99.90;;;;;;4937098;28;92458;-35
2023/07/02 00:55:06;;;;;;;10.48;7.18;;;15.60;99.90;;;;;;4953776;28;94266;-39
2023/07/02 00:57:33;;;;;;;8.02;7.22;;;15.60;99.90;;;;;;4945589;28;94609;-36
2023/07/02 01:00:02;;;;;;;11.40;6.72;;;15.50;99.90;;;;;;4918535;28;94610;-33
2023/07/02 01:02:29;;;;;;;9.52;7.47;;;15.50;99.90;;;;;;4936586;28;93621;-34
2023/07/02 01:04:59;;;;;;;9.35;7.40;;;15.50;99.90;;;;;;4954662;28;93745;-39
2023/07/02 01:07:25;;;;;;;11.50;7.13;;;15.40;99.90;;;;;;4937066;28;94693;-34
2023/07/02 01:09:51;;;;;;;10.05;6.65;;;15.40;99.90;;;;;;4955186;28;94998;-33
2023/07/02 01:12:21;;;;;;;9.60;7.60;;;15.30;99.90;;;;;;4954812;28;95466;-31
2023/07/02 01:14:56;;;;;;;10.93;7.07;;;15.30;99.90;;;;;;4955235;28;94235;-33
2023/07/02 01:17:23;;;;;;;10.07;7.05;;;15.30;99.90;;;;;;4954943;28;94643;-36
2023/07/02 01:19:58;;;;;;;10.27;6.25;;;15.30;99.90;;;;;;4956417;28;94817;-33
2023/07/02 01:22:26;;;;;;;7.65;6.43;;;15.30;99.90;;;;;;4942829;28;94101;-38
2023/07/02 01:24:53;;;;;;;15.18;8.20;;;15.20;99.90;;;;;;4947770;28;92201;-34
2023/07/02 01:27:20;;;;;;;11.25;7.90;;;15.20;99.90;;;;;;4948885;28;95029;-33
2023/07/02 01:29:46;;;;;;;14.98;6.50;;;15.10;99.90;;;;;;4944107;28;94380;-33
2023/07/02 01:32:13;;;;;;;9.05;6.38;;;15.10;99.90;;;;;;4954635;28;93163;-36
2023/07/02 01:34:39;;;;;;;8.00;7.13;;;15.10;99.90;;;;;;4938268;28;95726;-34
2023/07/02 01:37:05;;;;;;;11.00;7.03;;;15.10;99.90;;;;;;4954485;28;96018;-33
2023/07/02 01:39:32;;;;;;;9.98;7.18;;;15.10;99.90;;;;;;4955121;28;95460;-34
2023/07/02 01:42:10;;;;;;;10.27;7.50;;;15.00;99.90;;;;;;4954673;28;93636;-33
2023/07/02 01:44:37;;;;;;;12.10;7.13;;;15.00;99.90;;;;;;4956464;28;92316;-39
2023/07/02 01:47:03;;;;;;;11.15;7.80;;;14.90;99.90;;;;;;4957516;28;94804;-33
2023/07/02 01:49:29;;;;;;;17.92;8.82;;;14.90;99.90;;;;;;4959328;28;94620;-33
2023/07/02 01:51:56;;;;;;;9.82;6.80;;;14.80;99.90;;;;;;4958770;28;93592;-35
2023/07/02 01:54:23;;;;;;;11.07;7.45;;;14.80;99.90;;;;;;4958059;28;93377;-32
2023/07/02 01:56:49;;;;;;;11.00;6.90;;;14.80;99.90;;;;;;4940663;28;94389;-39
2023/07/02 01:59:15;;;;;;;12.70;7.35;;;14.80;99.90;;;;;;4938497;28;95499;-33
2023/07/02 02:01:41;;;;;;;12.20;7.90;;;14.70;99.90;;;;;;4938989;28;93095;-32
2023/07/02 02:04:10;;;;;;;8.82;7.45;;;14.60;99.90;;;;;;4938761;28;92867;-36
2023/07/02 02:06:37;;;;;;;12.27;7.53;;;14.60;99.90;;;;;;4939713;28;94860;-37
2023/07/02 02:09:04;;;;;;;12.68;7.88;;;14.60;99.90;;;;;;4939479;28;94609;-33
2023/07/02 02:11:30;;;;;;;17.88;8.77;;;14.50;99.90;;;;;;4938517;28;92257;-35
2023/07/02 02:13:57;;;;;;;13.63;8.05;;;14.60;99.90;;;;;;4939768;28;94115;-36
2023/07/02 02:16:23;;;;;;;12.68;8.38;;;14.50;99.90;;;;;;4939666;28;94968;-36
2023/07/02 02:18:51;;;;;;;11.70;7.85;;;14.50;99.90;;;;;;4937650;28;94846;-37
2023/07/02 02:21:18;;;;;;;14.98;8.30;;;14.50;99.90;;;;;;4939703;28;94565;-35
2023/07/02 02:23:44;;;;;;;12.90;8.27;;;14.50;99.90;;;;;;4939012;28;93187;-32
2023/07/02 02:26:09;;;;;;;20.20;8.43;;;14.40;99.90;;;;;;4938472;28;94134;-32
2023/07/02 02:28:35;;;;;;;13.88;9.40;;;14.40;99.90;;;;;;4939944;28;95464;-37
2023/07/02 02:31:01;;;;;;;13.77;8.80;;;14.30;99.90;;;;;;4939044;28;93980;-36
2023/07/02 02:33:26;;;;;;;15.82;8.60;;;14.30;99.90;;;;;;4938594;28;92279;-33
2023/07/02 02:35:52;;;;;;;16.98;9.65;;;14.30;99.90;;;;;;4939572;28;96454;-35
2023/07/02 02:38:17;;;;;;;15.50;8.90;;;14.30;99.90;;;;;;4937841;28;94870;-34
2023/07/02 02:40:43;;;;;;;12.43;8.00;;;14.30;99.90;;;;;;4939815;28;92329;-36
2023/07/02 02:43:09;;;;;;;18.83;9.02;;;14.20;99.90;;;;;;4938924;28;91528;-35
2023/07/02 02:45:34;;;;;;;14.52;9.27;;;14.20;99.90;;;;;;4939252;28;94819;-34
2023/07/02 02:48:00;;;;;;;13.70;9.30;;;14.20;99.90;;;;;;4938334;28;94349;-37
2023/07/02 02:50:26;;;;;;;10.98;8.23;;;14.20;99.90;;;;;;4957354;28;94149;-35
2023/07/02 02:52:52;;;;;;;16.23;10.88;;;14.10;99.90;;;;;;4958573;28;93782;-35
2023/07/02 02:55:18;;;;;;;14.20;8.15;;;14.10;99.90;;;;;;4950213;28;94826;-37
2023/07/02 02:57:44;;;;;;;22.70;9.77;;;14.10;99.90;;;;;;4939159;28;95462;-34
2023/07/02 03:00:11;;;;;;;21.90;9.57;;;14.10;99.90;;;;;;4939045;28;92196;-33
2023/07/02 03:02:37;;;;;;;17.95;10.25;;;14.00;99.90;;;;;;4938908;28;94200;-32
2023/07/02 03:05:03;;;;;;;17.85;9.30;;;14.00;99.90;;;;;;4938551;28;95063;-37
2023/07/02 03:07:29;;;;;;;18.55;10.00;;;14.00;99.90;;;;;;4938981;28;95348;-32
2023/07/02 03:09:55;;;;;;;24.88;11.40;;;13.90;99.90;;;;;;4937613;28;93387;-34
2023/07/02 03:12:21;;;;;;;16.63;9.35;;;14.00;99.90;;;;;;4937532;28;94550;-33
2023/07/02 03:14:51;;;;;;;18.88;9.88;;;13.90;99.90;;;;;;4937788;28;95592;-36
2023/07/02 03:17:17;;;;;;;16.35;10.25;;;13.90;99.90;;;;;;4939067;28;96394;-34
2023/07/02 03:19:42;;;;;;;19.02;9.73;;;13.90;99.90;;;;;;4938352;28;93508;-34
2023/07/02 03:22:08;;;;;;;19.48;10.23;;;13.90;99.90;;;;;;4940379;28;94579;-35
2023/07/02 03:24:34;;;;;;;25.42;10.95;;;13.90;99.90;;;;;;4939029;28;94828;-35
2023/07/02 03:26:59;;;;;;;23.98;10.80;;;13.90;99.90;;;;;;4939870;28;94580;-32
2023/07/02 03:29:25;;;;;;;15.93;10.05;;;13.90;99.90;;;;;;4908707;28;93013;-34
2023/07/02 03:31:51;;;;;;;16.20;10.10;;;13.80;99.90;;;;;;4941044;28;92279;-33
2023/07/02 03:34:16;;;;;;;15.45;10.18;;;13.80;99.90;;;;;;4938409;28;95200;-35
2023/07/02 03:36:43;;;;;;;16.33;10.80;;;13.80;99.90;;;;;;4940606;28;93467;-39
2023/07/02 03:39:09;;;;;;;17.83;10.52;;;13.80;99.90;;;;;;4937753;28;95782;-33
2023/07/02 03:41:35;;;;;;;20.63;9.90;;;13.90;99.90;;;;;;4940448;28;93469;-33
2023/07/02 03:44:00;;;;;;;25.85;11.32;;;13.90;99.90;;;;;;4939822;28;95903;-38
2023/07/02 03:46:26;;;;;;;22.60;11.02;;;13.90;99.90;;;;;;4939596;28;94389;-37
2023/07/02 03:48:52;;;;;;;18.23;10.48;;;13.90;99.90;;;;;;4939039;28;94415;-39
2023/07/02 03:51:17;;;;;;;17.48;9.70;;;13.90;99.90;;;;;;4938763;28;93388;-33
2023/07/02 03:53:43;;;;;;;23.58;11.50;;;13.90;99.90;;;;;;4945269;28;93421;-35
2023/07/02 03:56:09;;;;;;;23.52;10.82;;;14.00;99.90;;;;;;4943403;28;94606;-38
2023/07/02 03:58:35;;;;;;;16.58;10.93;;;14.00;99.90;;;;;;4924058;28;94215;-37
2023/07/02 04:01:00;;;;;;;28.50;10.80;;;14.00;99.90;;;;;;4920171;28;93837;-34
2023/07/02 04:03:26;;;;;;;21.83;10.52;;;14.00;99.90;;;;;;4936378;28;96031;-34
2023/07/02 04:05:52;;;;;;;19.65;10.57;;;14.10;99.90;;;;;;4936986;28;95876;-38
2023/07/02 04:08:17;;;;;;;32.75;11.82;;;14.10;99.90;;;;;;4936289;28;92449;-33
2023/07/02 04:10:43;;;;;;;22.08;10.82;;;14.00;99.90;;;;;;4936835;28;93807;-33
2023/07/02 04:13:09;;;;;;;22.27;10.52;;;14.00;99.90;;;;;;4936223;28;94767;-36
2023/07/02 04:15:35;;;;;;;19.67;10.98;;;14.00;99.90;;;;;;4936100;28;94847;-37
2023/07/02 04:18:01;;;;;;;20.27;9.45;;;14.00;99.90;;;;;;4936772;28;93883;-34
2023/07/02 04:20:28;;;;;;;27.35;10.77;;;14.10;99.90;;;;;;4937822;28;93615;-33
2023/07/02 04:22:54;;;;;;;22.98;10.27;;;14.00;99.90;;;;;;4936550;28;94760;-35
2023/07/02 04:25:20;;;;;;;29.90;11.65;;;14.10;99.90;;;;;;4936084;28;95023;-37
2023/07/02 04:27:46;;;;;;;21.48;10.82;;;14.20;99.90;;;;;;4936617;28;94402;-33
2023/07/02 04:30:12;;;;;;;15.32;10.20;;;14.20;99.90;;;;;;4936652;28;92939;-36
2023/07/02 04:32:41;;;;;;;20.10;10.75;;;14.20;99.90;;;;;;4937369;28;94603;-36
2023/07/02 04:35:08;;;;;;;19.65;10.40;;;14.20;99.90;;;;;;4935271;28;94779;-36
2023/07/02 04:37:34;;;;;;;26.50;10.93;;;14.20;99.90;;;;;;4936785;28;93022;-33
2023/07/02 04:40:00;;;;;;;15.85;10.25;;;14.20;99.90;;;;;;4999362;22;94009;-37
2023/07/02 04:42:31;;;;;;;19.88;10.27;;;14.20;99.90;;;;;;4958033;28;94544;-34
2023/07/02 04:45:01;;;;;;;26.52;11.82;;;14.40;99.90;;;;;;4975868;28;94585;-35
2023/07/02 04:47:27;;;;;;;25.35;11.35;;;14.60;99.90;;;;;;4975681;28;94407;-39
2023/07/02 04:49:53;;;;;;;24.15;11.98;;;14.70;99.90;;;;;;4975881;28;94367;-36
2023/07/02 04:52:18;;;;;;;21.73;11.02;;;14.70;99.90;;;;;;4974345;28;95747;-39
2023/07/02 04:54:44;;;;;;;19.58;10.07;;;14.80;99.90;;;;;;4975521;28;95821;-35
2023/07/02 04:57:09;;;;;;;20.48;11.38;;;14.80;99.90;;;;;;4974965;28;94504;-34
2023/07/02 04:59:35;;;;;;;27.50;10.95;;;14.70;99.90;;;;;;4975054;28;94748;-32
2023/07/02 05:02:01;;;;;;;20.33;10.55;;;14.70;99.90;;;;;;4974880;28;95280;-34
2023/07/02 05:04:26;;;;;;;31.75;12.05;;;14.70;99.90;;;;;;4974810;28;94459;-39
2023/07/02 05:06:53;;;;;;;16.83;11.18;;;14.60;99.90;;;;;;4975437;28;94839;-37
2023/07/02 05:09:18;;;;;;;20.90;9.63;;;14.60;99.90;;;;;;4974517;28;91446;-33
2023/07/02 05:11:44;;;;;;;16.48;9.50;;;14.60;99.90;;;;;;4975793;28;94849;-37
2023/07/02 05:14:09;;;;;;;20.42;12.32;;;14.60;99.90;;;;;;4975496;28;95443;-35
2023/07/02 05:16:35;;;;;;;16.75;10.95;;;14.60;99.90;;;;;;4975791;28;93115;-34
2023/07/02 05:19:01;;;;;;;23.20;11.57;;;14.70;99.90;;;;;;4976780;28;93366;-34
2023/07/02 05:21:26;;;;;;;21.90;10.63;;;14.90;99.90;;;;;;4978810;28;94437;-33
2023/07/02 05:23:52;;;;;;;16.65;11.10;;;15.10;99.90;;;;;;4978626;28;95395;-37
2023/07/02 05:26:17;;;;;;;27.02;11.93;;;15.20;99.90;;;;;;4977635;28;93395;-33
2023/07/02 05:28:44;;;;;;;24.60;11.07;;;15.50;99.90;;;;;;4978660;28;93972;-34
2023/07/02 05:31:10;;;;;;;23.67;10.63;;;15.70;99.90;;;;;;4977125;28;93292;-37
2023/07/02 05:33:36;;;;;;;20.70;12.20;;;15.90;99.90;;;;;;4978568;28;95393;-35
2023/07/02 05:36:02;;;;;;;23.73;11.07;;;16.00;99.90;;;;;;4978753;28;93224;-33
2023/07/02 05:38:27;;;;;;;25.88;11.63;;;16.30;99.90;;;;;;4977257;28;94082;-33
2023/07/02 05:40:53;;;;;;;19.42;10.38;;;16.30;99.90;;;;;;4978090;28;95446;-37
2023/07/02 05:43:19;;;;;;;19.10;8.73;;;16.30;99.90;;;;;;4977787;28;95868;-36
2023/07/02 05:45:44;;;;;;;19.60;9.82;;;16.50;99.90;;;;;;4979599;28;93311;-38
2023/07/02 05:48:10;;;;;;;18.17;10.10;;;16.60;99.90;;;;;;4978221;28;94066;-32
2023/07/02 05:50:35;;;;;;;21.70;9.27;;;16.60;99.90;;;;;;4977072;28;95342;-37
2023/07/02 05:53:01;;;;;;;27.52;11.02;;;17.00;99.90;;;;;;4978956;28;94548;-32
2023/07/02 05:55:27;;;;;;;18.95;9.82;;;17.10;99.90;;;;;;4978031;28;92965;-31
2023/07/02 05:57:52;;;;;;;21.98;11.88;;;17.30;99.90;;;;;;4979002;28;92765;-37
2023/07/02 06:00:18;;;;;;;21.73;9.55;;;17.50;99.90;;;;;;4966294;28;94633;-36
2023/07/02 06:02:47;;;;;;;19.45;11.07;;;17.50;99.90;;;;;;4974000;28;94662;-34
2023/07/02 06:05:13;;;;;;;22.30;10.77;;;17.40;99.90;;;;;;4976335;28;95899;-38
2023/07/02 06:07:39;;;;;;;18.77;8.95;;;17.60;99.90;;;;;;4976716;28;94228;-37
2023/07/02 06:10:04;;;;;;;22.48;9.80;;;17.70;99.90;;;;;;4971333;28;95191;-37
2023/07/02 06:12:30;;;;;;;26.92;10.15;;;17.80;99.90;;;;;;4978518;28;94555;-37
2023/07/02 06:14:56;;;;;;;24.20;8.77;;;17.80;99.90;;;;;;4970878;28;94716;-36
2023/07/02 06:17:22;;;;;;;15.90;9.93;;;17.90;99.90;;;;;;4969457;28;94127;-34
2023/07/02 06:19:48;;;;;;;22.02;10.77;;;18.00;99.90;;;;;;4978010;28;94832;-38
2023/07/02 06:22:14;;;;;;;15.90;8.93;;;18.40;99.90;;;;;;4957633;28;94688;-36
2023/07/02 06:24:39;;;;;;;25.30;10.38;;;18.50;99.90;;;;;;4971764;28;94210;-35
2023/07/02 06:27:05;;;;;;;20.77;9.88;;;18.90;99.90;;;;;;4957916;28;93114;-32
2023/07/02 06:29:30;;;;;;;25.80;10.20;;;18.80;99.90;;;;;;4958340;28;95717;-38
2023/07/02 06:31:56;;;;;;;21.35;9.82;;;19.00;99.90;;;;;;4961512;28;95890;-36
2023/07/02 06:34:22;;;;;;;20.70;8.38;;;18.70;99.90;;;;;;4975128;28;94873;-37
2023/07/02 06:36:48;;;;;;;17.75;10.02;;;18.60;99.90;;;;;;4975774;28;94580;-33
2023/07/02 06:39:14;;;;;;;17.05;8.50;;;19.00;99.90;;;;;;4955326;28;95003;-34
2023/07/02 06:41:39;;;;;;;15.00;8.15;;;19.00;99.90;;;;;;4966569;28;94484;-34
2023/07/02 06:44:05;;;;;;;18.02;8.98;;;18.80;99.90;;;;;;4959104;28;93131;-36
2023/07/02 06:46:30;;;;;;;22.13;9.23;;;18.70;99.90;;;;;;4958009;28;93179;-34
2023/07/02 06:48:56;;;;;;;16.88;7.72;;;18.70;99.90;;;;;;4963204;28;95200;-37
2023/07/02 06:51:22;;;;;;;20.90;8.98;;;18.60;99.90;;;;;;4946804;28;96352;-38
2023/07/02 06:53:48;;;;;;;17.38;9.73;;;18.40;99.90;;;;;;4962999;28;95447;-35
2023/07/02 06:56:14;;;;;;;14.93;7.57;;;18.20;99.90;;;;;;4974629;28;93424;-36
2023/07/02 06:58:42;;;;;;;14.98;8.10;;;18.20;99.90;;;;;;4968729;28;94898;-36
2023/07/02 07:01:08;;;;;;;15.98;8.10;;;18.10;99.90;;;;;;4969621;28;94359;-35
2023/07/02 07:03:35;;;;;;;15.68;7.53;;;17.90;99.90;;;;;;4981272;28;92749;-34
2023/07/02 07:06:01;;;;;;;16.35;7.28;;;17.90;99.90;;;;;;4980652;28;94745;-32
2023/07/02 07:08:26;;;;;;;10.50;6.82;;;18.20;99.90;;;;;;4969623;28;94453;-34
2023/07/02 07:10:52;;;;;;;15.52;8.70;;;18.40;99.90;;;;;;4968304;28;94503;-36
2023/07/02 07:13:17;;;;;;;13.25;6.90;;;18.80;99.90;;;;;;4975473;28;92802;-34
2023/07/02 07:15:43;;;;;;;15.52;8.15;;;19.10;99.90;;;;;;4974753;28;94302;-37
2023/07/02 07:18:10;;;;;;;17.10;7.10;;;19.20;99.90;;;;;;4974341;28;96280;-38
2023/07/02 07:20:36;;;;;;;14.95;8.63;;;19.00;99.90;;;;;;4966121;28;95299;-34
2023/07/02 07:23:05;;;;;;;17.95;7.93;;;18.90;99.90;;;;;;4967967;28;93572;-35
2023/07/02 07:25:31;;;;;;;13.98;7.20;;;18.70;99.90;;;;;;4959263;28;93411;-33
2023/07/02 07:27:59;;;;;;;12.75;6.95;;;18.40;99.90;;;;;;4966048;28;94604;-36
2023/07/02 07:30:24;;;;;;;11.63;5.83;;;18.10;99.90;;;;;;4965470;28;94725;-34
2023/07/02 07:32:51;;;;;;;17.23;8.23;;;17.90;99.90;;;;;;4963858;28;94436;-34
2023/07/02 07:35:18;;;;;;;10.25;7.20;;;18.00;99.90;;;;;;4967879;28;93635;-33
2023/07/02 07:37:44;;;;;;;16.73;6.57;;;17.90;99.90;;;;;;4957919;28;94304;-34
2023/07/02 07:40:10;;;;;;;12.50;7.13;;;17.80;99.90;;;;;;4965040;28;94478;-33
2023/07/02 07:42:36;;;;;;;16.25;6.18;;;17.70;99.90;;;;;;4957297;28;95487;-37
2023/07/02 07:45:03;;;;;;;13.60;6.97;;;18.20;99.90;;;;;;4954184;28;92532;-34
2023/07/02 07:47:28;;;;;;;12.30;6.93;;;18.70;99.90;;;;;;4968287;28;94745;-35
2023/07/02 07:49:54;;;;;;;16.80;8.40;;;19.20;99.90;;;;;;4955893;28;95638;-35
2023/07/02 07:52:20;;;;;;;17.85;6.43;;;19.60;99.90;;;;;;4955227;28;93432;-38
2023/07/02 07:54:46;;;;;;;15.93;8.10;;;19.70;99.90;;;;;;4968484;28;93170;-38
2023/07/02 07:57:12;;;;;;;15.25;6.47;;;20.10;99.90;;;;;;4964059;28;95170;-35
2023/07/02 07:59:38;;;;;;;15.55;6.82;;;19.80;99.90;;;;;;4959212;28;94100;-33
2023/07/02 08:02:04;;;;;;;15.48;7.47;;;19.80;99.90;;;;;;4955826;28;93805;-36
2023/07/02 08:04:36;;;;;;;16.23;7.13;;;19.70;99.90;;;;;;5041099;27;88615;-43
2023/07/02 08:07:04;;;;;;;12.57;6.55;;;19.50;99.90;;;;;;5027887;27;87958;-42
2023/07/02 08:09:30;;;;;;;14.25;6.40;;;19.60;99.90;;;;;;5028600;27;88496;-40
2023/07/02 08:11:55;;;;;;;13.25;6.07;;;19.60;99.90;;;;;;5033663;27;89976;-44
2023/07/02 08:14:21;;;;;;;12.98;6.95;;;19.30;99.90;;;;;;5034239;27;90858;-44
2023/07/02 08:16:46;;;;;;;17.23;5.45;;;19.30;99.90;;;;;;5034994;27;89314;-42
2023/07/02 08:19:12;;;;;;;8.43;4.95;;;19.80;99.90;;;;;;5034690;27;88616;-44
2023/07/02 08:21:38;;;;;;;9.38;5.63;;;20.30;99.90;;;;;;5034519;27;90301;-42
2023/07/02 08:24:04;;;;;;;4.93;4.18;;;20.70;99.90;;;;;;5034965;27;89680;-41
2023/07/02 08:26:30;;;;;;;10.63;4.85;;;20.70;99.90;;;;;;5031322;27;88102;-41
2023/07/02 08:28:56;;;;;;;12.80;4.93;;;20.90;99.90;;;;;;5029877;27;87698;-42
2023/07/02 08:31:22;;;;;;;6.57;4.55;;;21.00;99.90;;;;;;5034296;27;90413;-44
2023/07/02 08:33:47;;;;;;;6.85;4.47;;;20.60;99.90;;;;;;5034132;27;89847;-42
2023/07/02 08:36:16;;;;;;;9.65;5.60;;;20.40;99.90;;;;;;5034817;27;88085;-42
2023/07/02 08:38:43;;;;;;;9.85;4.38;;;20.40;99.90;;;;;;5034448;27;90024;-39
2023/07/02 08:41:09;;;;;;;6.80;4.30;;;20.20;99.90;;;;;;5034589;27;89682;-45
2023/07/02 08:43:35;;;;;;;7.22;3.55;;;20.10;99.90;;;;;;5034080;27;89695;-46
2023/07/02 08:46:01;;;;;;;6.85;4.60;;;19.60;99.90;;;;;;5034689;27;88334;-43
2023/07/02 08:48:29;;;;;;;6.18;3.58;;;19.70;99.90;;;;;;5033640;27;89415;-45
2023/07/02 08:50:55;;;;;;;6.87;3.43;;;19.90;99.90;;;;;;5034358;27;89391;-38
2023/07/02 08:53:29;;;;;;;9.65;4.25;;;19.70;99.90;;;;;;5034201;27;90040;-43
2023/07/02 08:55:55;;;;;;;6.30;3.85;;;19.80;99.90;;;;;;5033248;27;89539;-43
2023/07/02 08:58:21;;;;;;;7.70;4.60;;;19.60;99.90;;;;;;5033817;27;88533;-46
2023/07/02 09:01:10;;;;;;;7.95;4.13;;;19.30;99.90;;;;;;5034255;27;89488;-43
2023/07/02 09:03:39;;;;;;;5.72;4.10;;;19.30;99.90;;;;;;5022787;27;90200;-44
2023/07/02 09:06:06;;;;;;;7.70;4.30;;;19.30;99.90;;;;;;5033838;27;89491;-40
2023/07/02 09:08:35;;;;;;;8.05;4.93;;;19.30;99.90;;;;;;5031931;27;88461;-41
2023/07/02 09:11:15;;;;;;;11.45;3.72;;;19.40;99.90;;;;;;5033353;27;90215;-40
2023/07/02 09:13:58;;;;;;;10.32;4.10;;;19.40;99.90;;;;;;5034006;27;89186;-46
2023/07/02 09:16:30;;;;;;;4.65;3.22;;;19.00;99.90;;;;;;5019740;27;87933;-40
2023/07/02 09:18:57;;;;;;;8.57;4.00;;;18.90;99.90;;;;;;5019978;27;88149;-44
2023/07/02 09:21:22;;;;;;;8.57;4.00;;;18.40;99.90;;;;;;5020208;27;90346;-38
2023/07/02 09:23:48;;;;;;;6.47;4.70;;;18.30;99.90;;;;;;5020193;28;89303;-43
2023/07/02 09:26:23;;;;;;;10.57;4.72;;;18.30;99.90;;;;;;5020506;28;89930;-45
2023/07/02 09:28:49;;;;;;;13.52;4.78;;;18.40;99.90;;;;;;5020370;27;87698;-42
2023/07/02 09:31:15;;;;;;;6.30;3.95;;;18.30;99.90;;;;;;5019186;27;89366;-41
2023/07/02 09:33:42;;;;;;;8.52;3.70;;;18.30;99.90;;;;;;5018386;28;89813;-44
2023/07/02 09:36:07;;;;;;;7.32;4.00;;;18.30;99.90;;;;;;5019088;27;88266;-40
2023/07/02 09:38:33;;;;;;;8.18;4.63;;;18.50;99.90;;;;;;5019722;28;88956;-43
2023/07/02 09:40:59;;;;;;;5.45;4.22;;;19.00;99.90;;;;;;5020102;28;89735;-38
2023/07/02 09:43:26;;;;;;;12.80;4.30;;;19.40;99.90;;;;;;5018327;28;88911;-41
2023/07/02 09:45:55;;;;;;;7.00;4.05;;;19.50;99.90;;;;;;5020019;27;88760;-42
2023/07/02 09:48:24;;;;;;;8.85;4.18;;;19.70;99.90;;;;;;5015320;28;88746;-42
2023/07/02 09:50:51;;;;;;;8.85;4.45;;;19.90;99.90;;;;;;5019668;27;90262;-37
2023/07/02 09:53:17;;;;;;;8.88;4.95;;;19.90;99.90;;;;;;5018303;27;91049;-41
2023/07/02 09:55:43;;;;;;;11.10;6.10;;;19.70;99.90;;;;;;5019770;28;88579;-39
2023/07/02 09:58:10;;;;;;;10.10;4.95;;;19.90;99.90;;;;;;5018166;28;88866;-42
2023/07/02 10:00:36;;;;;;;9.48;4.38;;;19.90;99.90;;;;;;5014799;28;90426;-43
2023/07/02 10:03:01;;;;;;;9.00;4.97;;;19.60;99.90;;;;;;5017752;27;90037;-40
2023/07/02 10:05:32;;;;;;;13.85;5.03;;;19.50;99.90;;;;;;5006758;27;90401;-44
2023/07/02 10:08:10;;;;;;;8.88;4.80;;;19.40;99.90;;;;;;5018211;27;89032;-37
2023/07/02 10:10:36;;;;;;;14.25;5.43;;;19.20;99.90;;;;;;5008508;28;88227;-43
2023/07/02 10:13:02;;;;;;;9.73;6.05;;;19.00;99.90;;;;;;5018440;28;89681;-41
2023/07/02 10:15:29;;;;;;;11.38;5.03;;;19.00;99.90;;;;;;5019970;28;88640;-42
2023/07/02 10:18:00;;;;;;;11.23;6.35;;;18.90;99.90;;;;;;5006112;27;88936;-40
2023/07/02 10:20:33;;;;;;;9.13;6.20;;;18.90;99.90;;;;;;5019186;27;90304;-42
2023/07/02 10:23:01;;;;;;;9.63;5.13;;;19.30;99.90;;;;;;5018902;28;89354;-44
2023/07/02 10:25:34;;;;;;;10.13;5.32;;;19.60;99.90;;;;;;5019715;27;90947;-44
2023/07/02 10:28:01;;;;;;;10.32;5.50;;;19.80;99.90;;;;;;5017101;27;90107;-42
2023/07/02 10:30:38;;;;;;;13.30;5.03;;;20.00;99.90;;;;;;5018146;28;90433;-46
2023/07/02 10:33:09;;;;;;;14.40;5.80;;;19.90;99.90;;;;;;5018667;28;90072;-43
2023/07/02 10:35:35;;;;;;;9.07;4.95;;;19.40;99.90;;;;;;5006302;27;88600;-38
2023/07/02 10:38:00;;;;;;;9.63;4.57;;;19.50;99.90;;;;;;5018174;27;88291;-44
2023/07/02 10:40:26;;;;;;;7.47;5.40;;;19.40;99.90;;;;;;5017626;28;90137;-43
2023/07/02 10:42:53;;;;;;;10.60;5.40;;;19.30;99.90;;;;;;5018749;28;91123;-42
2023/07/02 10:45:19;;;;;;;8.57;4.45;;;19.40;99.90;;;;;;5018336;28;89563;-38
2023/07/02 10:47:46;;;;;;;7.05;4.18;;;19.50;99.90;;;;;;5018911;27;90107;-46
2023/07/02 10:50:20;;;;;;;8.60;4.95;;;19.30;99.90;;;;;;5018731;28;92096;-39
2023/07/02 10:52:46;;;;;;;10.02;4.90;;;19.30;99.90;;;;;;5016395;28;90855;-42
2023/07/02 10:55:23;;;;;;;6.63;3.85;;;19.40;99.90;;;;;;5017056;27;87510;-46
2023/07/02 10:57:51;;;;;;;10.90;4.13;;;19.30;99.90;;;;;;5018792;28;88262;-42
2023/07/02 11:00:17;;;;;;;9.55;4.38;;;19.40;99.90;;;;;;5016928;27;89796;-43
2023/07/02 11:02:43;;;;;;;11.50;5.68;;;19.50;99.90;;;;;;5016386;28;89181;-47
2023/07/02 11:05:12;;;;;;;9.55;5.25;;;19.80;99.90;;;;;;5017664;27;88989;-44
2023/07/02 11:07:44;;;;;;;11.50;4.88;;;20.00;99.90;;;;;;5016497;28;87738;-41
2023/07/02 11:10:16;;;;;;;9.68;6.13;;;19.90;99.90;;;;;;5007123;28;89776;-39
2023/07/02 11:12:42;;;;;;;10.52;5.18;;;19.70;99.90;;;;;;5016780;28;89190;-41
2023/07/02 11:15:13;;;;;;;10.75;5.85;;;19.50;99.90;;;;;;5018302;28;88301;-39
2023/07/02 11:17:40;;;;;;;8.27;4.65;;;19.40;99.90;;;;;;5018327;27;89805;-38
2023/07/02 11:20:10;;;;;;;12.63;5.57;;;19.40;99.90;;;;;;5017505;27;89263;-45
2023/07/02 11:22:37;;;;;;;11.07;4.43;;;19.40;99.90;;;;;;5017110;27;92059;-46
2023/07/02 11:25:13;;;;;;;9.07;4.68;;;19.50;99.90;;;;;;5009920;27;89471;-42
2023/07/02 11:27:39;;;;;;;9.32;5.57;;;19.60;99.90;;;;;;5018812;27;88589;-46
2023/07/02 11:30:06;;;;;;;12.27;5.20;;;19.50;99.90;;;;;;5017652;28;90530;-38
2023/07/02 11:32:34;;;;;;;15.80;5.10;;;19.60;99.90;;;;;;5017319;28;89551;-42
2023/07/02 11:35:00;;;;;;;10.80;5.18;;;19.60;99.90;;;;;;5017414;27;89391;-42
2023/07/02 11:37:26;;;;;;;8.52;4.40;;;19.30;99.90;;;;;;5018857;27;87780;-45
2023/07/02 11:39:51;;;;;;;8.10;5.03;;;19.00;99.90;;;;;;5017691;28;90077;-40
2023/07/02 11:42:17;;;;;;;6.13;4.35;;;19.10;99.90;;;;;;5016967;28;89054;-42
2023/07/02 11:44:43;;;;;;;8.02;4.72;;;19.30;99.90;;;;;;5017673;28;88770;-39
2023/07/02 11:47:08;;;;;;;11.75;5.15;;;19.30;99.90;;;;;;5017852;28;88631;-44
2023/07/02 11:49:34;;;;;;;12.52;5.22;;;19.30;99.90;;;;;;5017293;28;89468;-39
2023/07/02 11:52:00;;;;;;;13.32;4.88;;;19.20;99.90;;;;;;5017459;28;88875;-44
2023/07/02 11:54:25;;;;;;;11.10;5.45;;;19.00;99.90;;;;;;5016998;28;88529;-43
2023/07/02 11:56:51;;;;;;;11.75;5.53;;;18.90;99.90;;;;;;5017479;28;89554;-40
2023/07/02 11:59:18;;;;;;;9.82;4.30;;;18.90;99.90;;;;;;5017834;28;90697;-43
2023/07/02 12:01:43;;;;;;;7.50;5.40;;;18.70;99.90;;;;;;5017726;27;91518;-38
2023/07/02 12:04:11;;;;;;;7.57;4.05;;;18.90;99.90;;;;;;5016317;28;89102;-39
2023/07/02 12:06:37;;;;;;;12.05;5.93;;;18.90;99.90;;;;;;5016002;27;88740;-43
2023/07/02 12:09:03;;;;;;;11.02;4.82;;;19.00;99.90;;;;;;5011950;28;91929;-42
2023/07/02 12:11:28;;;;;;;9.38;5.03;;;19.10;99.90;;;;;;5015955;27;89430;-41
2023/07/02 12:13:54;;;;;;;11.85;5.13;;;19.40;99.90;;;;;;5017931;28;88501;-45
2023/07/02 12:16:19;;;;;;;10.98;4.63;;;19.30;99.90;;;;;;5016759;28;88363;-43
2023/07/02 12:18:45;;;;;;;9.40;4.82;;;19.40;99.90;;;;;;5017177;28;89354;-38
2023/07/02 12:21:11;;;;;;;7.03;4.75;;;19.30;99.90;;;;;;5016271;28;90252;-42
2023/07/02 12:23:37;;;;;;;5.95;4.10;;;19.40;99.90;;;;;;5017001;28;89071;-42
2023/07/02 12:26:02;;;;;;;6.57;4.13;;;19.20;99.90;;;;;;5016840;28;89405;-41
2023/07/02 12:28:28;;;;;;;7.38;3.53;;;19.30;99.90;;;;;;5016613;28;90621;-44
2023/07/02 12:30:54;;;;;;;7.75;3.83;;;19.00;99.90;;;;;;5010113;28;90993;-40
2023/07/02 12:33:19;;;;;;;7.63;4.38;;;19.00;99.90;;;;;;5010523;28;89868;-40
2023/07/02 12:35:45;;;;;;;6.78;4.40;;;18.90;99.90;;;;;;5016939;28;88024;-47